Time;durP1;ratioP1;P1;durP2;ratioP2;P2;SDS_P1;SDS_P2;PMS_P1;PMS_P2;Temp;Humidity;BMP_temperature;BMP_pressure;BME280_temperature;BME280_humidity;BME280_pressure;Samples;Min_cycle;Max_cycle;Signal;HPM_P1;HPM_P2
2022/11/30 00:01:26;;;;;;;53.97;27.77;;;;;;;4.56;93.79;101674.53;7406424;19;20520;-69
2022/11/30 00:03:58;;;;;;;56.70;30.00;;;;;;;4.54;93.79;101671.91;7408090;19;20062;-70
2022/11/30 00:06:27;;;;;;;56.05;28.75;;;;;;;4.53;93.75;101672.75;7407128;19;20467;-70
2022/11/30 00:08:56;;;;;;;53.28;27.42;;;;;;;4.52;93.41;101667.53;7407488;19;20497;-70
2022/11/30 00:11:28;;;;;;;50.42;27.77;;;;;;;4.52;93.42;101671.00;7406429;19;20038;-70
2022/11/30 00:13:56;;;;;;;51.97;28.23;;;;;;;4.52;93.29;101672.72;7405227;19;20014;-70
2022/11/30 00:16:26;;;;;;;56.35;29.55;;;;;;;4.52;93.00;101672.72;7400119;19;20022;-70
2022/11/30 00:18:57;;;;;;;53.10;27.30;;;;;;;4.51;93.02;101665.78;7399006;19;20078;-70
2022/11/30 00:21:25;;;;;;;55.72;28.67;;;;;;;4.51;92.85;101668.38;7398673;19;20357;-69
2022/11/30 00:23:54;;;;;;;54.28;29.00;;;;;;;4.50;92.99;101674.41;7400192;19;20023;-70
2022/11/30 00:26:23;;;;;;;55.20;29.65;;;;;;;4.49;92.86;101673.56;7399102;19;20042;-70
2022/11/30 00:28:52;;;;;;;56.35;30.10;;;;;;;4.49;92.99;101673.56;7397813;19;20018;-70
2022/11/30 00:31:21;;;;;;;51.97;27.80;;;;;;;4.50;92.72;101677.00;7397772;19;20019;-69
2022/11/30 00:33:49;;;;;;;52.58;27.70;;;;;;;4.49;92.69;101673.56;7397629;19;20007;-70
2022/11/30 00:36:22;;;;;;;49.17;29.10;;;;;;;4.50;92.96;101680.50;7399752;19;20070;-70
2022/11/30 00:38:52;;;;;;;54.90;29.40;;;;;;;4.48;92.54;101674.41;7400492;19;20017;-69
2022/11/30 00:41:22;;;;;;;52.15;27.77;;;;;;;4.46;91.93;101670.91;7398921;19;20025;-70
2022/11/30 00:43:50;;;;;;;53.28;28.40;;;;;;;4.49;92.46;101672.69;7397534;19;20014;-70
2022/11/30 00:46:19;;;;;;;55.05;29.75;;;;;;;4.49;92.12;101675.28;7398495;19;20480;-70
2022/11/30 00:48:48;;;;;;;52.78;28.33;;;;;;;4.49;92.05;101683.09;7399779;19;20027;-70
2022/11/30 00:51:17;;;;;;;54.45;29.75;;;;;;;4.46;92.09;101677.81;7398371;19;20426;-69
2022/11/30 00:53:49;;;;;;;57.97;30.35;;;;;;;4.46;92.25;101683.91;7397204;19;20062;-70
2022/11/30 00:56:18;;;;;;;60.10;30.20;;;;;;;4.47;92.61;101692.56;7399884;19;20022;-70
2022/11/30 00:58:46;;;;;;;57.03;30.75;;;;;;;4.46;92.19;101691.69;7398932;19;20379;-70
2022/11/30 01:01:15;;;;;;;53.28;30.00;;;;;;;4.45;92.05;101695.13;7396424;19;20014;-70
2022/11/30 01:03:43;;;;;;;57.97;29.45;;;;;;;4.46;91.84;101702.09;7399207;19;20070;-70
2022/11/30 01:06:12;;;;;;;55.33;30.27;;;;;;;4.46;92.07;101706.41;7396484;19;20496;-70
2022/11/30 01:08:40;;;;;;;55.92;29.25;;;;;;;4.46;91.87;101704.69;7398776;19;20015;-70
2022/11/30 01:11:16;;;;;;;54.63;29.05;;;;;;;4.47;91.87;101705.56;7397512;19;20018;-70
2022/11/30 01:13:45;;;;;;;56.72;29.40;;;;;;;4.45;91.80;101694.25;7397203;19;20027;-70
2022/11/30 01:16:17;;;;;;;54.13;29.25;;;;;;;4.45;91.58;101699.44;7396684;19;20015;-70
2022/11/30 01:18:53;;;;;;;57.28;30.77;;;;;;;4.44;91.61;101695.13;7398094;19;20010;-69
2022/11/30 01:21:24;;;;;;;60.20;31.20;;;;;;;4.44;91.37;101692.53;7397351;19;20102;-70
2022/11/30 01:23:53;;;;;;;56.53;30.73;;;;;;;4.41;91.27;101698.53;7398964;19;20015;-70
2022/11/30 01:26:25;;;;;;;60.13;31.90;;;;;;;4.38;91.17;101691.53;7395042;19;20019;-70
2022/11/30 01:28:56;;;;;;;58.30;30.25;;;;;;;4.40;91.62;101710.63;7395386;19;20014;-70
2022/11/30 01:31:25;;;;;;;56.55;30.10;;;;;;;4.38;91.44;101701.91;7397245;19;20022;-70
2022/11/30 01:33:56;;;;;;;58.95;30.08;;;;;;;4.37;91.21;101700.19;7397254;19;20418;-70
2022/11/30 01:36:27;;;;;;;59.35;31.02;;;;;;;4.38;90.88;101701.91;7399446;19;20388;-70
2022/11/30 01:38:57;;;;;;;57.72;31.30;;;;;;;4.37;91.33;101705.38;7398556;19;20035;-70
2022/11/30 01:41:30;;;;;;;58.33;30.88;;;;;;;4.36;91.17;101705.34;7396309;19;20031;-70
2022/11/30 01:44:25;;;;;;;56.95;31.73;;;;;;;4.36;91.01;101710.53;7397623;19;20423;-70
2022/11/30 01:46:59;;;;;;;62.67;31.58;;;;;;;4.34;91.00;101707.91;7396643;19;20030;-70
2022/11/30 01:49:31;;;;;;;64.63;33.55;;;;;;;4.31;90.91;101700.06;7397488;19;20484;-70
2022/11/30 01:52:04;;;;;;;61.78;32.40;;;;;;;4.33;91.05;101708.75;7395692;19;20364;-70
2022/11/30 01:54:37;;;;;;;63.92;31.95;;;;;;;4.32;90.93;101708.72;7398068;19;20022;-70
2022/11/30 01:57:15;;;;;;;57.93;30.13;;;;;;;4.30;91.06;101698.31;7396101;19;20028;-70
2022/11/30 01:59:44;;;;;;;65.68;31.52;;;;;;;4.31;91.19;101710.47;7397977;19;20011;-70
2022/11/30 02:02:12;;;;;;;61.65;32.22;;;;;;;4.30;90.83;101713.03;7395566;19;20014;-70
2022/11/30 02:04:41;;;;;;;59.72;31.42;;;;;;;4.31;90.89;101707.88;7395459;19;20018;-70
2022/11/30 02:07:10;;;;;;;58.15;29.80;;;;;;;4.26;90.96;101703.41;7396052;19;20022;-70
2022/11/30 02:09:44;;;;;;;59.63;32.00;;;;;;;4.30;90.86;101707.84;7396964;19;20031;-70
2022/11/30 02:12:28;;;;;;;60.35;31.70;;;;;;;4.28;90.71;101705.19;7396499;19;20019;-70
2022/11/30 02:15:02;;;;;;;58.30;31.33;;;;;;;4.28;91.11;101706.94;7400766;19;20014;-72
2022/11/30 02:17:42;;;;;;;57.15;30.92;;;;;;;4.28;90.80;101712.13;7400344;19;20032;-72
2022/11/30 02:20:34;;;;;;;56.20;30.30;;;;;;;4.27;90.92;101706.03;7394599;19;20023;-72
2022/11/30 02:23:30;;;;;;;55.83;30.83;;;;;;;4.27;90.82;101707.75;7395392;19;20034;-72
2022/11/30 02:26:06;;;;;;;57.33;30.95;;;;;;;4.25;91.06;101705.16;7396649;19;20022;-71
2022/11/30 02:29:04;;;;;;;61.80;32.13;;;;;;;4.26;90.89;101708.59;7396112;19;20383;-72
2022/11/30 02:31:42;;;;;;;59.85;31.55;;;;;;;4.25;90.73;101707.75;7394487;19;20010;-72
2022/11/30 02:34:14;;;;;;;58.10;31.65;;;;;;;4.22;90.78;101703.38;7396642;19;20015;-72
2022/11/30 02:36:44;;;;;;;61.13;31.05;;;;;;;4.23;90.69;101701.63;7394914;19;20015;-72
2022/11/30 02:39:13;;;;;;;61.90;31.70;;;;;;;4.22;90.66;101707.66;7395140;19;20022;-72
2022/11/30 02:41:42;;;;;;;59.78;32.53;;;;;;;4.22;90.79;101710.25;7394859;19;20035;-71
2022/11/30 02:44:13;;;;;;;62.80;33.58;;;;;;;4.23;90.71;101717.22;7396001;19;20090;-72
2022/11/30 02:47:01;;;;;;;64.47;33.95;;;;;;;4.22;90.50;101718.06;7395319;19;20082;-72
2022/11/30 02:49:37;;;;;;;56.55;31.50;;;;;;;4.22;90.76;101712.88;7396246;19;20027;-72
2022/11/30 02:52:08;;;;;;;63.35;32.85;;;;;;;4.21;90.62;101717.19;7394075;19;20031;-72
2022/11/30 02:54:36;;;;;;;58.30;31.98;;;;;;;4.23;90.81;101719.81;7395373;19;20090;-72
2022/11/30 02:57:05;;;;;;;61.95;31.70;;;;;;;4.20;90.60;101712.84;7395579;19;20036;-72
2022/11/30 02:59:34;;;;;;;56.30;31.60;;;;;;;4.21;90.57;101714.59;7395507;19;20078;-72
2022/11/30 03:02:05;;;;;;;59.45;32.35;;;;;;;4.21;90.35;101713.72;7393970;19;20022;-71
2022/11/30 03:04:33;;;;;;;56.33;31.23;;;;;;;4.20;90.45;101719.78;7395497;19;20411;-72
2022/11/30 03:07:02;;;;;;;61.88;33.22;;;;;;;4.19;90.30;101718.00;7394586;19;20023;-72
2022/11/30 03:09:30;;;;;;;59.42;31.58;;;;;;;4.17;90.23;101719.69;7395264;19;20010;-72
2022/11/30 03:11:59;;;;;;;62.50;33.83;;;;;;;4.19;90.65;101720.59;7393614;19;20019;-72
2022/11/30 03:14:28;;;;;;;62.78;33.03;;;;;;;4.16;90.64;101717.97;7395051;19;20363;-72
2022/11/30 03:16:57;;;;;;;59.17;32.33;;;;;;;4.19;90.30;101720.59;7398492;19;20028;-72
2022/11/30 03:19:41;;;;;;;60.83;32.50;;;;;;;4.17;90.29;101717.09;7398825;19;20028;-71
2022/11/30 03:22:09;;;;;;;67.90;33.95;;;;;;;4.16;90.13;101718.81;7398440;19;20022;-73
2022/11/30 03:24:38;;;;;;;59.40;32.50;;;;;;;4.16;90.09;101729.22;7394893;19;20018;-72
2022/11/30 03:27:06;;;;;;;58.63;31.98;;;;;;;4.15;90.23;101730.06;7393618;19;20018;-72
2022/11/30 03:29:35;;;;;;;62.92;34.05;;;;;;;4.15;90.27;101724.00;7394337;19;20010;-72
2022/11/30 03:32:03;;;;;;;64.05;33.40;;;;;;;4.13;90.27;101725.66;7392991;19;20018;-72
2022/11/30 03:34:35;;;;;;;59.38;32.22;;;;;;;4.13;90.26;101720.47;7392167;19;20032;-71
2022/11/30 03:37:03;;;;;;;61.28;33.63;;;;;;;4.12;90.36;101727.41;7394947;19;20036;-72
2022/11/30 03:39:32;;;;;;;61.83;33.00;;;;;;;4.13;90.20;101734.31;7392378;19;20014;-71
2022/11/30 03:42:00;;;;;;;65.97;35.47;;;;;;;4.13;90.16;101729.13;7391900;19;20383;-72
2022/11/30 03:44:28;;;;;;;65.78;34.40;;;;;;;4.12;90.06;101732.59;7392413;19;20014;-72
2022/11/30 03:46:57;;;;;;;60.15;33.08;;;;;;;4.10;90.14;101738.59;7393333;19;20027;-72
2022/11/30 03:49:26;;;;;;;60.80;34.05;;;;;;;4.11;89.91;101743.81;7391771;19;20032;-72
2022/11/30 03:51:57;;;;;;;62.67;35.30;;;;;;;4.07;89.70;101745.47;7397936;19;20018;-71
2022/11/30 03:54:25;;;;;;;62.67;34.35;;;;;;;4.05;90.03;101744.56;7401165;19;20484;-72
2022/11/30 03:56:54;;;;;;;58.20;34.17;;;;;;;4.05;90.04;101743.69;7401396;19;20027;-72
2022/11/30 03:59:22;;;;;;;61.97;34.35;;;;;;;4.05;89.82;101743.69;7401131;19;20015;-72
2022/11/30 04:01:51;;;;;;;66.43;34.92;;;;;;;4.04;89.97;101750.63;7398653;19;20018;-72
2022/11/30 04:04:19;;;;;;;62.08;34.63;;;;;;;4.03;90.17;101748.88;7400965;19;20026;-71
2022/11/30 04:06:48;;;;;;;62.83;35.92;;;;;;;4.02;89.95;101751.41;7400598;19;20014;-72
2022/11/30 04:09:19;;;;;;;64.85;36.05;;;;;;;4.00;90.08;101748.78;7398000;19;20015;-72
2022/11/30 04:11:47;;;;;;;61.50;33.72;;;;;;;3.99;90.09;101757.41;7398900;19;20031;-73
2022/11/30 04:14:16;;;;;;;66.10;34.03;;;;;;;3.99;89.85;101757.41;7400748;19;20032;-72
2022/11/30 04:16:44;;;;;;;63.78;35.03;;;;;;;3.98;89.60;101760.88;7397647;19;20096;-73
2022/11/30 04:19:13;;;;;;;59.40;35.38;;;;;;;3.98;89.84;101765.16;7397523;19;20010;-72
2022/11/30 04:21:41;;;;;;;63.60;34.65;;;;;;;3.96;90.03;101762.56;7398447;19;20536;-72
2022/11/30 04:24:10;;;;;;;61.35;33.88;;;;;;;3.94;89.90;101764.22;7400492;19;20018;-72
2022/11/30 04:26:42;;;;;;;67.18;37.03;;;;;;;3.94;89.82;101773.75;7397686;19;20025;-72
2022/11/30 04:29:10;;;;;;;62.55;35.08;;;;;;;3.92;89.93;101765.94;7400690;19;20035;-71
2022/11/30 04:31:39;;;;;;;62.95;36.38;;;;;;;3.90;89.80;101763.31;7398578;19;20022;-72
2022/11/30 04:34:07;;;;;;;62.28;35.38;;;;;;;3.89;89.71;101768.44;7399974;19;20413;-72
2022/11/30 04:36:35;;;;;;;62.63;34.33;;;;;;;3.89;89.87;101768.44;7400031;19;20031;-71
2022/11/30 04:39:04;;;;;;;61.65;34.05;;;;;;;3.87;90.07;101768.41;7400339;19;20022;-72
2022/11/30 04:41:32;;;;;;;65.35;36.25;;;;;;;3.89;90.09;101771.03;7398442;19;20023;-72
2022/11/30 04:44:03;;;;;;;66.03;36.70;;;;;;;3.86;89.83;101776.19;7400730;19;20425;-70
2022/11/30 04:46:32;;;;;;;62.78;33.72;;;;;;;3.86;89.61;101773.56;7399728;19;20512;-71
2022/11/30 04:49:00;;;;;;;65.22;38.05;;;;;;;3.85;89.86;101774.41;7397630;19;20027;-71
2022/11/30 04:51:29;;;;;;;66.30;35.70;;;;;;;3.82;89.93;101780.41;7397888;19;20018;-70
2022/11/30 04:53:57;;;;;;;60.70;36.08;;;;;;;3.82;89.78;101779.56;7399517;19;20024;-70
2022/11/30 04:56:26;;;;;;;67.07;37.85;;;;;;;3.82;89.72;101783.00;7399022;19;20505;-70
2022/11/30 04:58:54;;;;;;;64.35;35.92;;;;;;;3.81;89.61;101781.25;7399138;19;20037;-70
2022/11/30 05:01:25;;;;;;;61.90;34.78;;;;;;;3.82;89.82;101784.75;7396858;19;20410;-70
2022/11/30 05:03:55;;;;;;;63.47;35.70;;;;;;;3.80;89.58;101776.03;7397034;19;20035;-70
2022/11/30 05:06:24;;;;;;;65.07;35.08;;;;;;;3.79;89.49;101776.88;7396755;19;20109;-71
2022/11/30 05:08:52;;;;;;;59.88;35.72;;;;;;;3.78;89.79;101777.69;7396887;19;20022;-71
2022/11/30 05:11:21;;;;;;;63.28;34.83;;;;;;;3.77;89.51;101784.63;7396102;19;20014;-72
2022/11/30 05:13:49;;;;;;;60.08;34.15;;;;;;;3.77;89.55;101783.72;7399071;19;20073;-70
2022/11/30 05:16:18;;;;;;;60.92;33.85;;;;;;;3.75;89.27;101792.38;7398871;19;20090;-71
2022/11/30 05:18:49;;;;;;;61.28;33.50;;;;;;;3.72;89.44;101789.69;7396687;19;20025;-71
2022/11/30 05:21:18;;;;;;;59.92;33.47;;;;;;;3.73;89.20;101796.66;7396865;19;20024;-72
2022/11/30 05:23:47;;;;;;;58.17;33.25;;;;;;;3.72;89.42;101800.09;7398402;19;20010;-70
2022/11/30 05:26:16;;;;;;;56.75;34.47;;;;;;;3.71;89.60;101795.72;7396283;19;20014;-71
2022/11/30 05:28:45;;;;;;;58.33;34.72;;;;;;;3.71;89.44;101800.06;7396343;19;20014;-71
2022/11/30 05:31:13;;;;;;;59.55;34.80;;;;;;;3.70;89.18;101796.59;7396816;19;20383;-72
2022/11/30 05:33:42;;;;;;;58.42;33.83;;;;;;;3.69;89.43;101793.94;7397857;19;20014;-70
2022/11/30 05:36:13;;;;;;;86.00;46.25;;;;;;;3.69;89.60;101802.63;7398416;19;20019;-71
2022/11/30 05:38:42;;;;;;;81.55;44.83;;;;;;;3.69;89.47;101797.44;7398518;19;20040;-71
2022/11/30 05:41:10;;;;;;;63.03;35.58;;;;;;;3.69;89.54;101799.13;7397818;19;20047;-73
2022/11/30 05:43:39;;;;;;;60.58;37.50;;;;;;;3.68;89.26;101803.47;7397861;19;20035;-73
2022/11/30 05:46:10;;;;;;;64.30;35.75;;;;;;;3.67;88.80;101806.03;7397309;19;20018;-73
2022/11/30 05:48:39;;;;;;;59.45;35.30;;;;;;;3.65;89.18;101805.09;7396670;19;20026;-73
2022/11/30 05:51:08;;;;;;;62.95;36.50;;;;;;;3.64;89.02;101805.94;7396110;19;20035;-74
2022/11/30 05:53:39;;;;;;;61.83;35.85;;;;;;;3.63;89.14;101812.84;7394989;19;20010;-73
2022/11/30 05:56:10;;;;;;;61.63;35.78;;;;;;;3.62;89.24;101807.63;7397168;19;20423;-74
2022/11/30 05:58:39;;;;;;;62.35;35.70;;;;;;;3.62;89.23;101811.09;7396802;19;20074;-72
2022/11/30 06:01:08;;;;;;;59.40;34.92;;;;;;;3.57;88.86;101810.97;7395048;19;20011;-73
2022/11/30 06:03:37;;;;;;;60.67;35.35;;;;;;;3.60;89.18;101817.94;7395575;19;20022;-72
2022/11/30 06:06:06;;;;;;;60.83;35.20;;;;;;;3.61;89.23;101817.13;7396008;19;20019;-72
2022/11/30 06:08:34;;;;;;;60.63;36.67;;;;;;;3.60;89.02;101823.16;7394867;19;20042;-71
2022/11/30 06:11:05;;;;;;;59.08;35.53;;;;;;;3.61;88.41;101832.69;7395965;19;20023;-74
2022/11/30 06:13:34;;;;;;;63.97;35.33;;;;;;;3.59;88.92;101832.66;7395114;19;20033;-74
2022/11/30 06:16:03;;;;;;;59.22;33.75;;;;;;;3.57;88.84;101841.25;7396688;19;20019;-73
2022/11/30 06:18:32;;;;;;;59.78;35.67;;;;;;;3.55;88.65;101836.03;7396006;19;20535;-73
2022/11/30 06:21:16;;;;;;;61.80;36.28;;;;;;;3.53;88.67;101832.50;7391475;19;20018;-70
2022/11/30 06:23:50;;;;;;;64.30;37.13;;;;;;;3.52;88.83;101835.06;7393551;19;20007;-72
2022/11/30 06:26:21;;;;;;;63.58;36.33;;;;;;;3.51;88.90;101830.72;7394412;19;20404;-71
2022/11/30 06:28:50;;;;;;;64.32;36.83;;;;;;;3.51;88.94;101835.91;7394568;19;20424;-71
2022/11/30 06:31:18;;;;;;;64.60;36.13;;;;;;;3.51;88.55;101835.91;7393626;19;20501;-71
2022/11/30 06:33:47;;;;;;;62.00;35.95;;;;;;;3.51;88.63;101841.09;7395470;19;20022;-72
2022/11/30 06:36:15;;;;;;;65.93;37.25;;;;;;;3.51;88.86;101848.88;7395650;19;20018;-70
2022/11/30 06:38:44;;;;;;;60.95;37.63;;;;;;;3.49;88.76;101845.34;7395006;19;20014;-71
2022/11/30 06:41:13;;;;;;;60.83;36.63;;;;;;;3.48;88.93;101841.91;7394137;19;20039;-71
2022/11/30 06:43:44;;;;;;;63.28;36.55;;;;;;;3.47;88.77;101834.09;7395066;19;20018;-72
2022/11/30 06:46:12;;;;;;;60.67;36.50;;;;;;;3.47;88.43;101842.72;7396137;19;20035;-71
2022/11/30 06:48:41;;;;;;;63.00;36.90;;;;;;;3.46;88.33;101842.69;7394402;19;20018;-71
2022/11/30 06:51:11;;;;;;;67.05;36.90;;;;;;;3.43;88.41;101844.38;7393230;19;20551;-70
2022/11/30 06:53:39;;;;;;;60.40;35.90;;;;;;;3.43;88.49;101853.88;7395413;19;20035;-71
2022/11/30 06:56:09;;;;;;;64.47;36.85;;;;;;;3.42;88.82;101854.72;7397605;19;20023;-71
2022/11/30 06:58:38;;;;;;;63.60;36.47;;;;;;;3.43;88.55;101861.66;7400589;19;20536;-69
2022/11/30 07:01:10;;;;;;;66.80;38.25;;;;;;;3.41;88.45;101860.72;7396938;19;20014;-69
2022/11/30 07:03:39;;;;;;;65.15;37.40;;;;;;;3.40;88.38;101867.66;7395426;19;20065;-69
2022/11/30 07:06:12;;;;;;;68.85;38.25;;;;;;;3.40;88.44;101870.25;7394642;19;20024;-68
2022/11/30 07:08:41;;;;;;;68.13;36.90;;;;;;;3.40;88.59;101878.03;7393760;19;20540;-68
2022/11/30 07:11:11;;;;;;;61.97;37.70;;;;;;;3.41;88.72;101876.28;7394275;19;20023;-68
2022/11/30 07:13:39;;;;;;;68.55;37.92;;;;;;;3.42;88.93;101878.97;7393273;19;20027;-68
2022/11/30 07:16:13;;;;;;;65.28;38.05;;;;;;;3.45;89.00;101883.34;7393693;19;20022;-73
2022/11/30 07:18:42;;;;;;;67.00;38.33;;;;;;;3.47;88.64;101875.59;7395055;19;20477;-69
2022/11/30 07:21:12;;;;;;;66.35;38.70;;;;;;;3.47;88.58;101881.66;7393980;19;20010;-69
2022/11/30 07:26:21;;;;;;;64.60;37.00;;;;;;;3.46;88.25;101892.00;7401735;19;20377;-69
2022/11/30 07:28:53;;;;;;;63.95;37.47;;;;;;;3.47;88.52;101886.84;7399186;19;20019;-71
2022/11/30 07:31:27;;;;;;;61.38;36.03;;;;;;;3.47;88.57;101886.84;7400610;19;20040;-69
2022/11/30 07:33:56;;;;;;;61.30;36.87;;;;;;;3.49;88.55;101890.38;7401736;19;20489;-69
2022/11/30 07:36:29;;;;;;;58.88;34.95;;;;;;;3.49;88.22;101892.97;7401548;19;20485;-70
2022/11/30 07:38:57;;;;;;;59.47;37.28;;;;;;;3.49;88.30;101895.56;7398794;19;20033;-69
2022/11/30 07:41:26;;;;;;;61.78;36.53;;;;;;;3.48;87.96;101893.78;7399983;19;20035;-69
2022/11/30 07:43:55;;;;;;;65.78;37.55;;;;;;;3.48;88.05;101898.97;7401049;19;20026;-69
2022/11/30 07:46:26;;;;;;;61.72;36.72;;;;;;;3.50;87.92;101899.00;7401072;19;20480;-70
2022/11/30 07:48:54;;;;;;;65.18;36.92;;;;;;;3.49;88.08;101903.34;7400893;19;20018;-70
2022/11/30 07:51:24;;;;;;;62.50;35.33;;;;;;;3.48;87.90;101906.75;7399678;19;20079;-70
2022/11/30 07:53:52;;;;;;;119.18;64.65;;;;;;;3.49;87.99;101910.22;7400587;19;20441;-69
2022/11/30 07:56:22;;;;;;;69.60;39.17;;;;;;;3.49;88.00;101902.44;7401229;19;20098;-70
2022/11/30 07:58:52;;;;;;;68.88;40.67;;;;;;;3.51;88.00;101911.16;7400840;19;20018;-70
2022/11/30 08:01:22;;;;;;;63.85;36.38;;;;;;;3.52;87.90;101911.19;7399076;19;20383;-70
2022/11/30 08:03:55;;;;;;;61.13;35.25;;;;;;;3.52;87.76;101911.19;7401529;19;20026;-69
2022/11/30 08:06:25;;;;;;;60.90;35.97;;;;;;;3.55;87.99;101906.09;7401505;19;20381;-70
2022/11/30 08:08:56;;;;;;;57.70;34.50;;;;;;;3.55;87.45;101915.56;7397639;19;20385;-70
2022/11/30 08:11:26;;;;;;;64.80;34.60;;;;;;;3.58;87.69;101915.69;7398322;19;20040;-70
2022/11/30 08:13:55;;;;;;;54.90;33.75;;;;;;;3.61;87.48;101917.47;7401104;19;20426;-70
2022/11/30 08:16:26;;;;;;;60.88;34.70;;;;;;;3.62;87.36;101922.69;7400649;19;20014;-70
2022/11/30 08:18:57;;;;;;;56.47;32.83;;;;;;;3.64;87.26;101923.63;7400952;19;20015;-70
2022/11/30 08:21:26;;;;;;;54.90;32.95;;;;;;;3.66;87.39;101919.31;7398700;19;20392;-71
2022/11/30 08:24:03;;;;;;;55.42;32.15;;;;;;;3.70;87.05;101925.47;7397149;19;20007;-70
2022/11/30 08:26:37;;;;;;;55.85;33.83;;;;;;;3.72;87.19;101929.00;7400661;19;20025;-69
2022/11/30 08:29:06;;;;;;;55.17;34.13;;;;;;;3.72;86.86;101916.88;7398243;19;20018;-69
2022/11/30 08:31:36;;;;;;;52.63;31.38;;;;;;;3.77;86.79;101923.91;7397725;19;20022;-70
2022/11/30 08:34:13;;;;;;;54.90;32.05;;;;;;;3.74;86.02;101916.94;7401832;19;20489;-67
2022/11/30 08:36:42;;;;;;;53.83;32.63;;;;;;;3.78;86.46;101925.66;7396514;19;20022;-67
2022/11/30 08:39:14;;;;;;;52.08;31.83;;;;;;;3.80;86.28;101921.41;7399903;19;20086;-67
2022/11/30 08:41:42;;;;;;;54.00;32.85;;;;;;;3.82;86.13;101930.13;7397591;19;20010;-69
2022/11/30 08:44:11;;;;;;;53.08;31.25;;;;;;;3.83;85.84;101926.66;7400189;19;20032;-69
2022/11/30 08:46:39;;;;;;;55.38;31.88;;;;;;;3.86;86.09;101929.34;7400296;19;20094;-68
2022/11/30 08:49:10;;;;;;;51.53;32.03;;;;;;;3.89;85.96;101932.00;7398145;19;20086;-69
2022/11/30 08:51:39;;;;;;;49.60;30.20;;;;;;;3.91;85.68;101932.94;7397496;19;20082;-69
2022/11/30 08:54:07;;;;;;;48.92;29.65;;;;;;;3.93;85.49;101931.28;7399304;19;20039;-69
2022/11/30 08:56:36;;;;;;;51.55;31.05;;;;;;;3.95;85.40;101931.31;7398773;19;20547;-70
2022/11/30 08:59:04;;;;;;;53.47;31.00;;;;;;;3.96;85.40;101931.34;7399292;19;20027;-69
2022/11/30 09:01:33;;;;;;;57.58;33.53;;;;;;;4.00;85.34;101933.16;7397291;19;20026;-69
2022/11/30 09:04:01;;;;;;;50.40;31.38;;;;;;;4.03;84.88;101924.56;7398668;19;20017;-70
2022/11/30 09:06:32;;;;;;;51.38;30.10;;;;;;;4.06;85.07;101928.13;7398951;19;20430;-69
2022/11/30 09:09:01;;;;;;;49.85;29.75;;;;;;;4.08;84.48;101931.63;7397717;19;20035;-72
2022/11/30 09:11:32;;;;;;;50.65;31.25;;;;;;;4.11;84.70;101940.31;7396126;19;20031;-69
2022/11/30 09:14:03;;;;;;;50.88;30.48;;;;;;;4.13;84.53;101939.53;7399367;19;20043;-69
2022/11/30 09:16:32;;;;;;;50.13;29.95;;;;;;;4.15;84.38;101934.38;7398483;19;20018;-69
2022/11/30 09:19:00;;;;;;;48.17;29.73;;;;;;;4.18;83.57;101935.34;7396512;19;20430;-69
2022/11/30 09:21:32;;;;;;;47.92;29.52;;;;;;;4.20;83.79;101933.63;7395827;19;20074;-69
2022/11/30 09:24:00;;;;;;;53.55;32.13;;;;;;;4.24;84.04;101939.78;7397037;19;20010;-69
2022/11/30 09:26:28;;;;;;;50.45;31.25;;;;;;;4.27;83.67;101937.25;7395634;19;20414;-69
2022/11/30 09:28:57;;;;;;;50.90;30.33;;;;;;;4.30;83.46;101939.06;7395609;19;20019;-69
2022/11/30 09:31:27;;;;;;;50.55;31.95;;;;;;;4.34;83.63;101930.50;7396905;19;20026;-68
2022/11/30 09:33:58;;;;;;;48.47;29.33;;;;;;;4.38;83.71;101927.13;7398609;19;20028;-68
2022/11/30 09:36:28;;;;;;;48.35;30.02;;;;;;;4.44;83.13;101931.59;7398463;19;20022;-68
2022/11/30 09:38:59;;;;;;;47.20;29.33;;;;;;;4.48;83.13;101928.22;7398076;19;20018;-67
2022/11/30 09:42:03;;;;;;;50.60;31.35;;;;;;;4.52;83.05;101928.28;7396898;19;20090;-68
2022/11/30 09:44:41;;;;;;;47.80;29.65;;;;;;;4.59;83.04;101934.53;7395756;19;20094;-71
2022/11/30 09:47:23;;;;;;;49.00;29.88;;;;;;;4.66;83.56;101928.63;7397813;19;20072;-69
2022/11/30 09:49:52;;;;;;;45.97;28.92;;;;;;;4.73;82.91;101925.28;7394828;19;20018;-69
2022/11/30 09:52:34;;;;;;;46.20;28.42;;;;;;;4.80;82.68;101923.72;7396828;19;20022;-68
2022/11/30 09:55:10;;;;;;;47.72;27.90;;;;;;;4.85;82.04;101918.59;7397851;19;20019;-68
2022/11/30 09:57:47;;;;;;;45.15;28.02;;;;;;;4.92;82.31;101919.63;7397941;19;20027;-68
2022/11/30 10:00:18;;;;;;;43.30;27.85;;;;;;;4.97;82.35;101916.25;7397984;19;20070;-69
2022/11/30 10:02:47;;;;;;;46.03;28.33;;;;;;;5.03;82.22;101918.97;7397029;19;20015;-67
2022/11/30 10:05:17;;;;;;;33.55;22.92;;;;;;;5.10;80.14;101916.50;7396924;19;20035;-67
2022/11/30 10:08:06;;;;;;;33.70;20.60;;;;;;;5.11;79.10;101920.88;7396782;19;20019;-69
2022/11/30 10:10:43;;;;;;;35.03;22.15;;;;;;;5.17;79.08;101913.19;7393767;19;20022;-69
2022/11/30 10:13:26;;;;;;;33.47;22.08;;;;;;;5.21;77.82;101920.19;7396810;19;20015;-68
2022/11/30 10:16:08;;;;;;;35.75;23.10;;;;;;;5.24;79.32;101922.84;7394123;19;20014;-69
2022/11/30 10:18:47;;;;;;;35.90;24.13;;;;;;;5.30;79.40;101925.56;7396939;19;20371;-68
2022/11/30 10:21:35;;;;;;;34.03;22.33;;;;;;;5.34;75.43;101924.75;7396163;19;20019;-68
2022/11/30 10:24:20;;;;;;;36.97;22.50;;;;;;;5.39;77.85;101930.94;7395081;19;20015;-69
2022/11/30 10:26:55;;;;;;;36.63;23.45;;;;;;;5.44;76.58;101923.22;7396207;19;20014;-70
2022/11/30 10:29:31;;;;;;;35.97;23.05;;;;;;;5.51;77.46;101921.59;7395505;19;20025;-68
2022/11/30 10:32:02;;;;;;;31.17;19.75;;;;;;;5.58;76.84;101922.59;7394238;19;20418;-68
2022/11/30 10:34:35;;;;;;;27.70;18.70;;;;;;;5.62;76.73;101927.88;7395346;19;20019;-70
2022/11/30 10:37:11;;;;;;;29.40;19.20;;;;;;;5.69;76.50;101923.66;7396142;19;20018;-70
2022/11/30 10:39:45;;;;;;;28.38;18.15;;;;;;;5.74;74.95;101922.03;7396002;19;20014;-69
2022/11/30 10:42:22;;;;;;;30.80;18.70;;;;;;;5.76;72.51;101924.66;7393761;19;20018;-69
2022/11/30 10:44:59;;;;;;;28.90;18.50;;;;;;;5.82;74.56;101916.94;7394669;19;20031;-70
2022/11/30 10:47:32;;;;;;;26.02;17.30;;;;;;;5.84;73.52;101929.13;7396010;19;20019;-69
2022/11/30 10:50:02;;;;;;;28.10;17.30;;;;;;;5.90;73.17;101925.75;7393132;19;20074;-69
2022/11/30 10:52:33;;;;;;;27.35;17.60;;;;;;;5.93;72.57;101927.56;7393470;19;20350;-71
2022/11/30 10:55:02;;;;;;;27.70;17.27;;;;;;;5.96;72.06;101924.97;7397208;19;20018;-68
2022/11/30 10:57:35;;;;;;;27.80;18.08;;;;;;;5.99;72.04;101925.94;7396278;19;20422;-69
2022/11/30 11:00:07;;;;;;;25.13;18.30;;;;;;;6.02;71.05;101922.50;7394520;19;20014;-70
2022/11/30 11:02:43;;;;;;;27.17;17.55;;;;;;;6.06;69.93;101920.84;7395545;19;20019;-69
2022/11/30 11:05:19;;;;;;;28.92;17.73;;;;;;;6.05;68.92;101919.94;7395118;19;20033;-70
2022/11/30 11:07:52;;;;;;;25.30;17.58;;;;;;;6.07;70.60;101920.00;7394710;19;20029;-69
2022/11/30 11:10:23;;;;;;;28.08;18.65;;;;;;;6.07;71.20;101918.25;7392649;19;20476;-69
2022/11/30 11:12:56;;;;;;;28.60;18.38;;;;;;;6.08;71.46;101916.50;7393603;19;20074;-69
2022/11/30 11:15:26;;;;;;;26.15;17.83;;;;;;;6.11;71.73;101914.81;7392796;19;20481;-71
2022/11/30 11:18:14;;;;;;;31.27;21.10;;;;;;;6.14;71.94;101920.09;7392989;19;20018;-69
2022/11/30 11:20:43;;;;;;;28.88;19.20;;;;;;;6.18;72.32;101916.69;7393285;19;20040;-70
2022/11/30 11:23:23;;;;;;;28.52;19.23;;;;;;;6.20;70.13;101914.09;7393736;19;20044;-70
2022/11/30 11:25:53;;;;;;;29.70;19.88;;;;;;;6.21;70.78;101925.41;7394476;19;20014;-71
2022/11/30 11:28:24;;;;;;;31.17;19.20;;;;;;;6.19;69.77;101928.88;7394450;19;20010;-70
2022/11/30 11:30:56;;;;;;;30.52;19.95;;;;;;;6.21;71.09;101930.63;7392876;19;20018;-71
2022/11/30 11:33:26;;;;;;;28.92;18.75;;;;;;;6.25;71.24;101922.84;7394297;19;20044;-71
2022/11/30 11:35:57;;;;;;;31.17;20.50;;;;;;;6.30;70.84;101930.75;7392511;19;20040;-70
2022/11/30 11:38:28;;;;;;;29.88;19.42;;;;;;;6.31;69.71;101930.78;7394659;19;20015;-69